sensor_id;sensor_type;location;lat;lon;timestamp;pressure;altitude;pressure_sealevel;temperature;humidity
1207;BME280;593;53.184;8.216;2023-03-23T00:01:20;99806.25;;;13.73;100.00
1207;BME280;593;53.184;8.216;2023-03-23T00:03:48;99804.66;;;13.72;100.00
1207;BME280;593;53.184;8.216;2023-03-23T00:06:15;99806.41;;;13.76;100.00
1207;BME280;593;53.184;8.216;2023-03-23T00:08:46;99804.47;;;13.68;100.00
1207;BME280;593;53.184;8.216;2023-03-23T00:11:13;99793.88;;;13.67;100.00
1207;BME280;593;53.184;8.216;2023-03-23T00:13:41;99797.25;;;13.72;100.00
1207;BME280;593;53.184;8.216;2023-03-23T00:16:07;99800.28;;;13.71;100.00
1207;BME280;593;53.184;8.216;2023-03-23T00:18:44;99781.03;;;13.67;100.00
1207;BME280;593;53.184;8.216;2023-03-23T00:21:09;99785.34;;;13.68;100.00
1207;BME280;593;53.184;8.216;2023-03-23T00:23:34;99773.31;;;13.69;100.00
1207;BME280;593;53.184;8.216;2023-03-23T00:26:00;99773.25;;;13.78;100.00
1207;BME280;593;53.184;8.216;2023-03-23T00:28:26;99772.59;;;13.89;100.00
1207;BME280;593;53.184;8.216;2023-03-23T00:30:59;99765.56;;;13.80;100.00
1207;BME280;593;53.184;8.216;2023-03-23T00:33:27;99767.78;;;13.78;100.00
1207;BME280;593;53.184;8.216;2023-03-23T00:35:53;99757.66;;;13.78;100.00
1207;BME280;593;53.184;8.216;2023-03-23T00:38:23;99756.88;;;13.78;100.00
1207;BME280;593;53.184;8.216;2023-03-23T00:40:49;99757.19;;;13.85;100.00
1207;BME280;593;53.184;8.216;2023-03-23T00:43:16;99756.84;;;13.86;100.00
1207;BME280;593;53.184;8.216;2023-03-23T00:45:43;99746.38;;;13.88;100.00
1207;BME280;593;53.184;8.216;2023-03-23T00:48:10;99739.00;;;13.80;100.00
1207;BME280;593;53.184;8.216;2023-03-23T00:50:38;99734.34;;;13.81;100.00
1207;BME280;593;53.184;8.216;2023-03-23T00:53:03;99737.09;;;13.81;100.00
1207;BME280;593;53.184;8.216;2023-03-23T00:55:29;99730.34;;;13.78;100.00
1207;BME280;593;53.184;8.216;2023-03-23T00:57:55;99735.34;;;13.76;100.00
1207;BME280;593;53.184;8.216;2023-03-23T01:00:21;99732.75;;;13.80;100.00
1207;BME280;593;53.184;8.216;2023-03-23T01:02:47;99718.59;;;13.86;100.00
1207;BME280;593;53.184;8.216;2023-03-23T01:05:13;99726.94;;;13.90;100.00
1207;BME280;593;53.184;8.216;2023-03-23T01:07:39;99721.78;;;13.88;100.00
1207;BME280;593;53.184;8.216;2023-03-23T01:10:05;99725.50;;;13.84;100.00
1207;BME280;593;53.184;8.216;2023-03-23T01:12:31;99720.69;;;13.81;100.00
1207;BME280;593;53.184;8.216;2023-03-23T01:14:56;99724.56;;;13.80;100.00
1207;BME280;593;53.184;8.216;2023-03-23T01:17:21;99720.22;;;13.79;100.00
1207;BME280;593;53.184;8.216;2023-03-23T01:19:47;99717.66;;;13.82;100.00
1207;BME280;593;53.184;8.216;2023-03-23T01:22:12;99721.94;;;13.92;100.00
1207;BME280;593;53.184;8.216;2023-03-23T01:24:38;99715.19;;;13.89;100.00
1207;BME280;593;53.184;8.216;2023-03-23T01:27:03;99710.03;;;13.88;100.00
1207;BME280;593;53.184;8.216;2023-03-23T01:29:33;99718.25;;;13.88;100.00
1207;BME280;593;53.184;8.216;2023-03-23T01:31:58;99703.16;;;13.82;100.00
1207;BME280;593;53.184;8.216;2023-03-23T01:34:24;99719.22;;;13.83;100.00
1207;BME280;593;53.184;8.216;2023-03-23T01:36:50;99716.78;;;13.90;100.00
1207;BME280;593;53.184;8.216;2023-03-23T01:39:15;99713.94;;;13.87;100.00
1207;BME280;593;53.184;8.216;2023-03-23T01:41:40;99712.94;;;13.91;100.00
1207;BME280;593;53.184;8.216;2023-03-23T01:45:11;99709.84;;;13.93;100.00
1207;BME280;593;53.184;8.216;2023-03-23T01:46:53;99704.09;;;13.94;100.00
1207;BME280;593;53.184;8.216;2023-03-23T01:49:41;99703.63;;;13.92;100.00
1207;BME280;593;53.184;8.216;2023-03-23T01:52:14;99689.97;;;13.84;100.00
1207;BME280;593;53.184;8.216;2023-03-23T01:54:42;99693.50;;;13.84;100.00
1207;BME280;593;53.184;8.216;2023-03-23T01:57:13;99680.97;;;13.83;100.00
1207;BME280;593;53.184;8.216;2023-03-23T01:59:41;99675.31;;;13.88;100.00
1207;BME280;593;53.184;8.216;2023-03-23T02:02:10;99658.59;;;13.90;100.00
1207;BME280;593;53.184;8.216;2023-03-23T02:04:37;99650.69;;;13.97;100.00
1207;BME280;593;53.184;8.216;2023-03-23T02:07:03;99643.28;;;13.97;100.00
1207;BME280;593;53.184;8.216;2023-03-23T02:09:29;99638.94;;;13.96;100.00
1207;BME280;593;53.184;8.216;2023-03-23T02:11:55;99654.69;;;13.99;100.00
1207;BME280;593;53.184;8.216;2023-03-23T02:14:23;99642.94;;;13.99;100.00
1207;BME280;593;53.184;8.216;2023-03-23T02:16:55;99641.19;;;13.94;100.00
1207;BME280;593;53.184;8.216;2023-03-23T02:24:58;99661.34;;;13.90;100.00
1207;BME280;593;53.184;8.216;2023-03-23T02:35:59;99640.41;;;13.94;100.00
1207;BME280;593;53.184;8.216;2023-03-23T02:38:35;99633.19;;;13.89;100.00
1207;BME280;593;53.184;8.216;2023-03-23T02:41:03;99623.06;;;13.90;100.00
1207;BME280;593;53.184;8.216;2023-03-23T02:43:33;99617.44;;;13.86;100.00
1207;BME280;593;53.184;8.216;2023-03-23T02:46:01;99621.72;;;13.96;100.00
1207;BME280;593;53.184;8.216;2023-03-23T02:48:31;99615.59;;;13.99;100.00
1207;BME280;593;53.184;8.216;2023-03-23T02:50:58;99620.91;;;13.95;100.00
1207;BME280;593;53.184;8.216;2023-03-23T02:53:26;99617.91;;;13.88;100.00
1207;BME280;593;53.184;8.216;2023-03-23T02:55:53;99621.78;;;13.87;100.00
1207;BME280;593;53.184;8.216;2023-03-23T02:58:20;99624.03;;;13.85;100.00
1207;BME280;593;53.184;8.216;2023-03-23T03:00:49;99604.13;;;13.85;100.00
1207;BME280;593;53.184;8.216;2023-03-23T03:03:21;99613.09;;;13.85;100.00
1207;BME280;593;53.184;8.216;2023-03-23T03:06:23;99608.91;;;13.88;100.00
1207;BME280;593;53.184;8.216;2023-03-23T03:09:18;99607.81;;;13.80;100.00
1207;BME280;593;53.184;8.216;2023-03-23T03:11:48;99611.50;;;13.84;100.00
1207;BME280;593;53.184;8.216;2023-03-23T03:14:22;99602.16;;;13.85;100.00
1207;BME280;593;53.184;8.216;2023-03-23T03:17:01;99588.22;;;13.78;100.00
1207;BME280;593;53.184;8.216;2023-03-23T03:19:36;99582.19;;;13.64;100.00
1207;BME280;593;53.184;8.216;2023-03-23T03:22:03;99587.38;;;13.57;100.00
1207;BME280;593;53.184;8.216;2023-03-23T03:24:31;99576.66;;;13.43;100.00
1207;BME280;593;53.184;8.216;2023-03-23T03:26:59;99595.31;;;13.41;100.00
1207;BME280;593;53.184;8.216;2023-03-23T03:29:36;99590.47;;;13.47;100.00
1207;BME280;593;53.184;8.216;2023-03-23T03:32:08;99594.00;;;13.47;100.00
1207;BME280;593;53.184;8.216;2023-03-23T03:34:36;99585.81;;;13.47;100.00
1207;BME280;593;53.184;8.216;2023-03-23T03:37:02;99583.84;;;13.48;100.00
1207;BME280;593;53.184;8.216;2023-03-23T03:39:33;99585.00;;;13.47;100.00
1207;BME280;593;53.184;8.216;2023-03-23T03:41:59;99588.84;;;13.46;100.00
1207;BME280;593;53.184;8.216;2023-03-23T03:44:24;99594.31;;;13.46;100.00
1207;BME280;593;53.184;8.216;2023-03-23T03:46:50;99602.50;;;13.46;100.00
1207;BME280;593;53.184;8.216;2023-03-23T03:49:15;99585.47;;;13.49;100.00
1207;BME280;593;53.184;8.216;2023-03-23T03:51:41;99587.09;;;13.50;100.00
1207;BME280;593;53.184;8.216;2023-03-23T03:54:07;99593.81;;;13.53;100.00
1207;BME280;593;53.184;8.216;2023-03-23T03:56:33;99585.75;;;13.56;100.00
1207;BME280;593;53.184;8.216;2023-03-23T03:59:02;99589.13;;;13.53;100.00
1207;BME280;593;53.184;8.216;2023-03-23T04:01:27;99586.22;;;13.58;100.00
1207;BME280;593;53.184;8.216;2023-03-23T04:03:53;99594.91;;;13.60;100.00
1207;BME280;593;53.184;8.216;2023-03-23T04:06:20;99588.31;;;13.61;100.00
1207;BME280;593;53.184;8.216;2023-03-23T04:08:45;99582.22;;;13.56;100.00
1207;BME280;593;53.184;8.216;2023-03-23T04:11:12;99589.75;;;13.59;100.00
1207;BME280;593;53.184;8.216;2023-03-23T04:13:39;99592.19;;;13.60;100.00
1207;BME280;593;53.184;8.216;2023-03-23T04:16:05;99579.00;;;13.54;100.00
1207;BME280;593;53.184;8.216;2023-03-23T04:18:31;99588.66;;;13.60;100.00
1207;BME280;593;53.184;8.216;2023-03-23T04:20:58;99596.50;;;13.61;100.00
1207;BME280;593;53.184;8.216;2023-03-23T04:23:25;99585.28;;;13.54;100.00
1207;BME280;593;53.184;8.216;2023-03-23T04:25:51;99578.03;;;13.58;100.00
1207;BME280;593;53.184;8.216;2023-03-23T04:28:19;99576.53;;;13.69;100.00
1207;BME280;593;53.184;8.216;2023-03-23T04:30:49;99573.81;;;13.69;100.00
1207;BME280;593;53.184;8.216;2023-03-23T04:33:18;99575.91;;;13.64;100.00
1207;BME280;593;53.184;8.216;2023-03-23T04:35:45;99572.06;;;13.65;100.00
1207;BME280;593;53.184;8.216;2023-03-23T04:38:15;99576.91;;;13.59;100.00
1207;BME280;593;53.184;8.216;2023-03-23T04:40:42;99581.06;;;13.65;100.00
1207;BME280;593;53.184;8.216;2023-03-23T04:43:07;99573.81;;;13.69;100.00
1207;BME280;593;53.184;8.216;2023-03-23T04:45:35;99586.66;;;13.69;100.00
1207;BME280;593;53.184;8.216;2023-03-23T04:48:04;99572.69;;;13.70;100.00
1207;BME280;593;53.184;8.216;2023-03-23T04:50:31;99574.63;;;13.70;100.00
1207;BME280;593;53.184;8.216;2023-03-23T04:52:58;99574.28;;;13.71;100.00
1207;BME280;593;53.184;8.216;2023-03-23T04:55:30;99577.00;;;13.71;100.00
1207;BME280;593;53.184;8.216;2023-03-23T04:57:56;99575.91;;;13.64;100.00
1207;BME280;593;53.184;8.216;2023-03-23T05:00:25;99583.81;;;13.65;100.00
1207;BME280;593;53.184;8.216;2023-03-23T05:02:50;99568.53;;;13.64;100.00
1207;BME280;593;53.184;8.216;2023-03-23T05:05:17;99568.34;;;13.69;100.00
1207;BME280;593;53.184;8.216;2023-03-23T05:07:42;99558.88;;;13.67;100.00
1207;BME280;593;53.184;8.216;2023-03-23T05:10:10;99567.41;;;13.65;100.00
1207;BME280;593;53.184;8.216;2023-03-23T05:12:35;99559.25;;;13.57;100.00
1207;BME280;593;53.184;8.216;2023-03-23T05:15:02;99555.41;;;13.49;100.00
1207;BME280;593;53.184;8.216;2023-03-23T05:17:27;99559.78;;;13.50;100.00
1207;BME280;593;53.184;8.216;2023-03-23T05:19:55;99553.50;;;13.49;100.00
1207;BME280;593;53.184;8.216;2023-03-23T05:22:22;99542.56;;;13.49;100.00
1207;BME280;593;53.184;8.216;2023-03-23T05:24:47;99544.16;;;13.50;100.00
1207;BME280;593;53.184;8.216;2023-03-23T05:27:14;99559.09;;;13.53;100.00
1207;BME280;593;53.184;8.216;2023-03-23T05:29:40;99545.41;;;13.62;100.00
1207;BME280;593;53.184;8.216;2023-03-23T05:32:07;99564.38;;;13.58;100.00
1207;BME280;593;53.184;8.216;2023-03-23T05:34:33;99557.25;;;13.66;100.00
1207;BME280;593;53.184;8.216;2023-03-23T05:37:00;99540.31;;;13.52;100.00
1207;BME280;593;53.184;8.216;2023-03-23T05:39:27;99537.72;;;13.55;100.00
1207;BME280;593;53.184;8.216;2023-03-23T05:41:52;99544.94;;;13.60;100.00
1207;BME280;593;53.184;8.216;2023-03-23T05:44:18;99551.19;;;13.60;100.00
1207;BME280;593;53.184;8.216;2023-03-23T05:46:44;99548.78;;;13.59;100.00
1207;BME280;593;53.184;8.216;2023-03-23T05:49:10;99545.72;;;13.60;100.00
1207;BME280;593;53.184;8.216;2023-03-23T05:51:35;99553.94;;;13.60;100.00
1207;BME280;593;53.184;8.216;2023-03-23T05:54:01;99554.13;;;13.55;100.00
1207;BME280;593;53.184;8.216;2023-03-23T05:56:27;99544.31;;;13.54;100.00
1207;BME280;593;53.184;8.216;2023-03-23T05:58:57;99561.34;;;13.51;100.00
1207;BME280;593;53.184;8.216;2023-03-23T06:01:23;99563.09;;;13.56;100.00
1207;BME280;593;53.184;8.216;2023-03-23T06:03:49;99575.00;;;13.51;100.00
1207;BME280;593;53.184;8.216;2023-03-23T06:06:16;99576.63;;;13.52;100.00
1207;BME280;593;53.184;8.216;2023-03-23T06:08:43;99577.63;;;13.47;100.00
1207;BME280;593;53.184;8.216;2023-03-23T06:11:08;99563.97;;;13.47;100.00
1207;BME280;593;53.184;8.216;2023-03-23T06:13:33;99567.00;;;13.46;100.00
1207;BME280;593;53.184;8.216;2023-03-23T06:15:59;99572.94;;;13.48;100.00
1207;BME280;593;53.184;8.216;2023-03-23T06:18:24;99573.91;;;13.52;100.00
1207;BME280;593;53.184;8.216;2023-03-23T06:20:50;99580.94;;;13.53;100.00
1207;BME280;593;53.184;8.216;2023-03-23T06:23:16;99589.63;;;13.55;100.00
1207;BME280;593;53.184;8.216;2023-03-23T06:25:43;99599.59;;;13.51;100.00
1207;BME280;593;53.184;8.216;2023-03-23T06:28:09;99605.06;;;13.51;100.00
1207;BME280;593;53.184;8.216;2023-03-23T06:30:36;99613.72;;;13.53;100.00
1207;BME280;593;53.184;8.216;2023-03-23T06:33:01;99629.81;;;13.55;100.00
1207;BME280;593;53.184;8.216;2023-03-23T06:35:30;99628.19;;;13.54;100.00
1207;BME280;593;53.184;8.216;2023-03-23T06:37:56;99627.38;;;13.62;100.00
1207;BME280;593;53.184;8.216;2023-03-23T06:40:23;99631.03;;;13.66;100.00
1207;BME280;593;53.184;8.216;2023-03-23T06:42:48;99647.44;;;13.66;100.00
1207;BME280;593;53.184;8.216;2023-03-23T06:45:14;99635.75;;;13.57;100.00
1207;BME280;593;53.184;8.216;2023-03-23T06:47:39;99657.91;;;13.64;100.00
1207;BME280;593;53.184;8.216;2023-03-23T06:50:05;99665.00;;;13.56;100.00
1207;BME280;593;53.184;8.216;2023-03-23T06:52:31;99664.53;;;13.54;100.00
1207;BME280;593;53.184;8.216;2023-03-23T06:54:56;99669.34;;;13.57;100.00
1207;BME280;593;53.184;8.216;2023-03-23T06:57:22;99660.66;;;13.55;100.00
1207;BME280;593;53.184;8.216;2023-03-23T06:59:47;99658.69;;;13.64;100.00
1207;BME280;593;53.184;8.216;2023-03-23T07:02:13;99661.78;;;13.63;100.00
1207;BME280;593;53.184;8.216;2023-03-23T07:04:40;99659.34;;;13.61;100.00
1207;BME280;593;53.184;8.216;2023-03-23T07:07:08;99668.50;;;13.65;100.00
1207;BME280;593;53.184;8.216;2023-03-23T07:09:34;99656.16;;;13.59;100.00
1207;BME280;593;53.184;8.216;2023-03-23T07:11:59;99642.81;;;13.58;100.00
1207;BME280;593;53.184;8.216;2023-03-23T07:14:25;99653.75;;;13.58;100.00
1207;BME280;593;53.184;8.216;2023-03-23T07:16:51;99656.78;;;13.56;100.00
1207;BME280;593;53.184;8.216;2023-03-23T07:19:18;99658.75;;;13.47;100.00
1207;BME280;593;53.184;8.216;2023-03-23T07:21:43;99658.75;;;13.47;100.00
1207;BME280;593;53.184;8.216;2023-03-23T07:24:13;99659.22;;;13.49;100.00
1207;BME280;593;53.184;8.216;2023-03-23T07:26:40;99659.41;;;13.44;100.00
1207;BME280;593;53.184;8.216;2023-03-23T07:29:06;99663.88;;;13.48;100.00
1207;BME280;593;53.184;8.216;2023-03-23T07:31:32;99667.44;;;13.40;100.00
1207;BME280;593;53.184;8.216;2023-03-23T07:33:57;99675.78;;;13.44;100.00
1207;BME280;593;53.184;8.216;2023-03-23T07:36:22;99682.06;;;13.36;100.00
1207;BME280;593;53.184;8.216;2023-03-23T07:38:48;99689.00;;;13.33;100.00
1207;BME280;593;53.184;8.216;2023-03-23T07:41:13;99680.84;;;13.25;100.00
1207;BME280;593;53.184;8.216;2023-03-23T07:43:38;99685.44;;;13.33;100.00
1207;BME280;593;53.184;8.216;2023-03-23T07:46:04;99684.63;;;13.41;100.00
1207;BME280;593;53.184;8.216;2023-03-23T07:48:30;99686.72;;;13.44;100.00
1207;BME280;593;53.184;8.216;2023-03-23T07:50:55;99686.09;;;13.47;100.00
1207;BME280;593;53.184;8.216;2023-03-23T07:53:20;99684.16;;;13.47;100.00
1207;BME280;593;53.184;8.216;2023-03-23T07:55:48;99694.44;;;13.42;100.00
1207;BME280;593;53.184;8.216;2023-03-23T07:58:13;99689.94;;;13.46;100.00
1207;BME280;593;53.184;8.216;2023-03-23T08:00:44;99697.66;;;13.44;100.00
1207;BME280;593;53.184;8.216;2023-03-23T08:03:10;99701.81;;;13.50;100.00
1207;BME280;593;53.184;8.216;2023-03-23T08:05:35;99703.13;;;13.44;100.00
1207;BME280;593;53.184;8.216;2023-03-23T08:08:00;99704.56;;;13.33;100.00
1207;BME280;593;53.184;8.216;2023-03-23T08:10:26;99720.00;;;13.37;100.00
1207;BME280;593;53.184;8.216;2023-03-23T08:12:55;99705.06;;;13.35;100.00
1207;BME280;593;53.184;8.216;2023-03-23T08:15:22;99710.38;;;13.40;100.00
1207;BME280;593;53.184;8.216;2023-03-23T08:17:48;99710.03;;;13.41;100.00
1207;BME280;593;53.184;8.216;2023-03-23T08:20:15;99714.22;;;13.47;100.00
1207;BME280;593;53.184;8.216;2023-03-23T08:22:51;99720.16;;;13.49;100.00
1207;BME280;593;53.184;8.216;2023-03-23T08:25:18;99730.09;;;13.54;100.00
1207;BME280;593;53.184;8.216;2023-03-23T08:27:43;99727.53;;;13.58;100.00
1207;BME280;593;53.184;8.216;2023-03-23T08:30:11;99734.75;;;13.54;100.00
1207;BME280;593;53.184;8.216;2023-03-23T08:32:37;99728.66;;;13.48;100.00
1207;BME280;593;53.184;8.216;2023-03-23T08:35:03;99735.72;;;13.40;100.00
1207;BME280;593;53.184;8.216;2023-03-23T08:37:29;99728.69;;;13.31;100.00
1207;BME280;593;53.184;8.216;2023-03-23T08:39:56;99732.69;;;13.42;100.00
1207;BME280;593;53.184;8.216;2023-03-23T08:42:23;99742.97;;;13.45;100.00
1207;BME280;593;53.184;8.216;2023-03-23T08:44:49;99744.41;;;13.51;100.00
1207;BME280;593;53.184;8.216;2023-03-23T08:47:15;99737.94;;;13.56;100.00
1207;BME280;593;53.184;8.216;2023-03-23T08:49:41;99744.56;;;13.55;100.00
1207;BME280;593;53.184;8.216;2023-03-23T08:52:08;99745.03;;;13.57;100.00
1207;BME280;593;53.184;8.216;2023-03-23T08:54:34;99741.97;;;13.67;100.00
1207;BME280;593;53.184;8.216;2023-03-23T08:57:00;99733.13;;;13.61;100.00
1207;BME280;593;53.184;8.216;2023-03-23T08:59:26;99734.63;;;13.50;100.00
1207;BME280;593;53.184;8.216;2023-03-23T09:01:52;99741.97;;;13.58;100.00
1207;BME280;593;53.184;8.216;2023-03-23T09:04:18;99747.75;;;13.57;100.00
1207;BME280;593;53.184;8.216;2023-03-23T09:06:44;99747.13;;;13.60;100.00
1207;BME280;593;53.184;8.216;2023-03-23T09:09:11;99746.31;;;13.68;100.00
1207;BME280;593;53.184;8.216;2023-03-23T09:11:37;99741.44;;;13.73;100.00
1207;BME280;593;53.184;8.216;2023-03-23T09:14:04;99742.88;;;13.79;100.00
1207;BME280;593;53.184;8.216;2023-03-23T09:16:30;99748.00;;;13.89;100.00
1207;BME280;593;53.184;8.216;2023-03-23T09:18:56;99741.38;;;13.90;100.00
1207;BME280;593;53.184;8.216;2023-03-23T09:21:25;99741.53;;;14.02;100.00
1207;BME280;593;53.184;8.216;2023-03-23T09:23:53;99745.03;;;14.03;100.00
1207;BME280;593;53.184;8.216;2023-03-23T09:26:21;99752.13;;;14.04;100.00
1207;BME280;593;53.184;8.216;2023-03-23T09:28:47;99754.22;;;14.07;100.00
1207;BME280;593;53.184;8.216;2023-03-23T09:31:12;99742.28;;;14.11;100.00
1207;BME280;593;53.184;8.216;2023-03-23T09:33:38;99741.94;;;14.13;100.00
1207;BME280;593;53.184;8.216;2023-03-23T09:36:04;99746.47;;;14.18;100.00
1207;BME280;593;53.184;8.216;2023-03-23T09:38:31;99756.13;;;14.15;100.00
1207;BME280;593;53.184;8.216;2023-03-23T09:49:32;99776.50;;;14.35;100.00
1207;BME280;593;53.184;8.216;2023-03-23T09:52:05;99774.88;;;14.34;100.00
1207;BME280;593;53.184;8.216;2023-03-23T09:54:34;99779.69;;;14.37;100.00
1207;BME280;593;53.184;8.216;2023-03-23T09:57:02;99773.88;;;14.38;100.00
1207;BME280;593;53.184;8.216;2023-03-23T10:05:14;99777.25;;;14.44;100.00
1207;BME280;593;53.184;8.216;2023-03-23T10:07:41;99783.81;;;14.51;100.00
1207;BME280;593;53.184;8.216;2023-03-23T10:10:12;99802.31;;;14.54;100.00
1207;BME280;593;53.184;8.216;2023-03-23T10:15:36;99812.06;;;14.64;100.00
1207;BME280;593;53.184;8.216;2023-03-23T10:18:32;99809.34;;;14.64;100.00
1207;BME280;593;53.184;8.216;2023-03-23T10:21:00;99811.59;;;14.62;100.00
1207;BME280;593;53.184;8.216;2023-03-23T10:23:50;99804.97;;;14.63;100.00
1207;BME280;593;53.184;8.216;2023-03-23T10:26:25;99786.03;;;14.58;100.00
1207;BME280;593;53.184;8.216;2023-03-23T10:29:17;99792.97;;;14.55;100.00
1207;BME280;593;53.184;8.216;2023-03-23T10:32:00;99789.16;;;14.48;100.00
1207;BME280;593;53.184;8.216;2023-03-23T10:34:40;99811.34;;;14.46;100.00
1207;BME280;593;53.184;8.216;2023-03-23T10:39:50;99812.50;;;14.45;100.00
1207;BME280;593;53.184;8.216;2023-03-23T10:44:49;99797.72;;;14.38;100.00
1207;BME280;593;53.184;8.216;2023-03-23T10:47:16;99812.06;;;14.35;100.00
1207;BME280;593;53.184;8.216;2023-03-23T10:49:58;99815.59;;;14.35;100.00
1207;BME280;593;53.184;8.216;2023-03-23T10:52:42;99811.25;;;14.34;100.00
1207;BME280;593;53.184;8.216;2023-03-23T10:55:18;99814.28;;;14.41;100.00
1207;BME280;593;53.184;8.216;2023-03-23T10:58:11;99810.06;;;14.44;100.00
1207;BME280;593;53.184;8.216;2023-03-23T11:00:43;99807.69;;;14.42;100.00
1207;BME280;593;53.184;8.216;2023-03-23T11:05:53;99820.84;;;14.49;100.00
1207;BME280;593;53.184;8.216;2023-03-23T11:08:21;99826.47;;;14.52;100.00
1207;BME280;593;53.184;8.216;2023-03-23T11:10:53;99823.41;;;14.54;100.00
1207;BME280;593;53.184;8.216;2023-03-23T11:13:20;99816.00;;;14.54;100.00
1207;BME280;593;53.184;8.216;2023-03-23T11:15:47;99811.44;;;14.58;100.00
1207;BME280;593;53.184;8.216;2023-03-23T11:18:20;99819.16;;;14.65;100.00
1207;BME280;593;53.184;8.216;2023-03-23T11:20:49;99817.97;;;14.74;100.00
1207;BME280;593;53.184;8.216;2023-03-23T11:23:23;99822.00;;;14.77;100.00
1207;BME280;593;53.184;8.216;2023-03-23T11:25:53;99810.03;;;14.82;100.00
1207;BME280;593;53.184;8.216;2023-03-23T11:28:19;99811.47;;;14.88;100.00
1207;BME280;593;53.184;8.216;2023-03-23T11:30:44;99814.34;;;14.91;100.00
1207;BME280;593;53.184;8.216;2023-03-23T11:33:10;99806.25;;;14.95;100.00
1207;BME280;593;53.184;8.216;2023-03-23T11:35:37;99805.81;;;14.93;100.00
1207;BME280;593;53.184;8.216;2023-03-23T11:38:03;99809.00;;;14.95;100.00
1207;BME280;593;53.184;8.216;2023-03-23T11:40:31;99809.94;;;14.99;100.00
1207;BME280;593;53.184;8.216;2023-03-23T11:43:13;99801.97;;;15.06;100.00
1207;BME280;593;53.184;8.216;2023-03-23T11:45:47;99812.94;;;15.06;100.00
1207;BME280;593;53.184;8.216;2023-03-23T11:48:24;99810.69;;;15.08;100.00
1207;BME280;593;53.184;8.216;2023-03-23T11:51:18;99798.59;;;15.09;100.00
1207;BME280;593;53.184;8.216;2023-03-23T11:54:07;99796.00;;;15.12;100.00
1207;BME280;593;53.184;8.216;2023-03-23T11:56:37;99801.28;;;15.17;100.00
1207;BME280;593;53.184;8.216;2023-03-23T11:59:10;99794.19;;;15.16;100.00
1207;BME280;593;53.184;8.216;2023-03-23T12:01:49;99786.50;;;15.10;100.00
1207;BME280;593;53.184;8.216;2023-03-23T12:04:38;99806.53;;;15.02;100.00
1207;BME280;593;53.184;8.216;2023-03-23T12:12:59;99809.75;;;15.24;100.00
1207;BME280;593;53.184;8.216;2023-03-23T12:24:01;99823.78;;;15.43;100.00
1207;BME280;593;53.184;8.216;2023-03-23T12:26:39;99861.66;;;15.50;100.00
1207;BME280;593;53.184;8.216;2023-03-23T12:34:54;99847.59;;;15.52;100.00
1207;BME280;593;53.184;8.216;2023-03-23T12:45:24;99838.00;;;15.46;100.00
1207;BME280;593;53.184;8.216;2023-03-23T12:48:05;99841.53;;;15.46;100.00
1207;BME280;593;53.184;8.216;2023-03-23T12:50:36;99828.47;;;15.43;100.00
1207;BME280;593;53.184;8.216;2023-03-23T12:53:22;99829.94;;;15.40;100.00
1207;BME280;593;53.184;8.216;2023-03-23T12:56:11;99828.31;;;15.48;100.00
1207;BME280;593;53.184;8.216;2023-03-23T12:58:45;99826.94;;;15.54;100.00
1207;BME280;593;53.184;8.216;2023-03-23T13:01:17;99827.59;;;15.51;100.00
1207;BME280;593;53.184;8.216;2023-03-23T13:03:55;99817.59;;;15.55;100.00
1207;BME280;593;53.184;8.216;2023-03-23T13:11:41;99799.88;;;15.53;100.00
1207;BME280;593;53.184;8.216;2023-03-23T13:22:50;99827.97;;;15.50;94.21
1207;BME280;593;53.184;8.216;2023-03-23T13:25:49;99820.25;;;15.64;94.98
1207;BME280;593;53.184;8.216;2023-03-23T13:28:17;99818.09;;;15.69;94.00
1207;BME280;593;53.184;8.216;2023-03-23T13:31:03;99823.84;;;15.76;92.82
1207;BME280;593;53.184;8.216;2023-03-23T13:33:34;99814.56;;;15.69;93.45
1207;BME280;593;53.184;8.216;2023-03-23T13:36:13;99807.94;;;15.70;93.83
1207;BME280;593;53.184;8.216;2023-03-23T13:38:46;99815.53;;;15.85;93.11
1207;BME280;593;53.184;8.216;2023-03-23T13:41:15;99823.56;;;15.90;93.10
1207;BME280;593;53.184;8.216;2023-03-23T13:43:42;99808.91;;;15.86;92.17
1207;BME280;593;53.184;8.216;2023-03-23T13:46:24;99807.75;;;15.87;91.29
1207;BME280;593;53.184;8.216;2023-03-23T13:51:51;99829.56;;;15.83;93.12
1207;BME280;593;53.184;8.216;2023-03-23T13:54:39;99832.78;;;15.85;94.75
1207;BME280;593;53.184;8.216;2023-03-23T13:59:56;99821.19;;;16.00;100.00
1207;BME280;593;53.184;8.216;2023-03-23T14:04:53;99823.16;;;16.12;100.00
1207;BME280;593;53.184;8.216;2023-03-23T14:07:20;99816.25;;;16.06;100.00
1207;BME280;593;53.184;8.216;2023-03-23T14:09:45;99812.19;;;16.12;100.00
1207;BME280;593;53.184;8.216;2023-03-23T14:12:26;99808.97;;;16.10;99.83
1207;BME280;593;53.184;8.216;2023-03-23T14:15:02;99817.25;;;15.89;95.05
1207;BME280;593;53.184;8.216;2023-03-23T14:17:31;99822.53;;;15.94;94.62
1207;BME280;593;53.184;8.216;2023-03-23T14:19:59;99832.16;;;16.00;93.77
1207;BME280;593;53.184;8.216;2023-03-23T14:22:27;99840.94;;;16.06;93.24
1207;BME280;593;53.184;8.216;2023-03-23T14:25:00;99836.63;;;16.05;93.68
1207;BME280;593;53.184;8.216;2023-03-23T14:27:27;99830.78;;;16.07;93.12
1207;BME280;593;53.184;8.216;2023-03-23T14:30:05;99841.91;;;16.10;93.39
1207;BME280;593;53.184;8.216;2023-03-23T14:32:32;99856.75;;;16.09;93.32
1207;BME280;593;53.184;8.216;2023-03-23T14:34:59;99850.00;;;16.07;94.84
1207;BME280;593;53.184;8.216;2023-03-23T14:37:26;99857.41;;;16.06;96.08
1207;BME280;593;53.184;8.216;2023-03-23T14:39:53;99859.09;;;15.98;97.31
1207;BME280;593;53.184;8.216;2023-03-23T14:42:39;99855.09;;;15.96;99.16
1207;BME280;593;53.184;8.216;2023-03-23T14:45:05;99863.31;;;15.96;99.42
1207;BME280;593;53.184;8.216;2023-03-23T14:47:43;99857.84;;;15.96;100.00
1207;BME280;593;53.184;8.216;2023-03-23T14:50:37;99859.66;;;15.92;100.00
1207;BME280;593;53.184;8.216;2023-03-23T14:53:23;99855.31;;;15.91;100.00
1207;BME280;593;53.184;8.216;2023-03-23T14:55:51;99857.34;;;15.82;100.00
1207;BME280;593;53.184;8.216;2023-03-23T14:58:20;99852.00;;;15.85;100.00
1207;BME280;593;53.184;8.216;2023-03-23T15:00:56;99852.00;;;15.85;100.00
1207;BME280;593;53.184;8.216;2023-03-23T15:03:24;99850.59;;;15.79;100.00